Nearby METAR Reports

 

KOXC - Oxford/Waterbury, Connecticut, USA
Distance from station: SE 8mi, 12km
Updated: Sun, 24-Jun-2018 7:51am EDT
Fog, Overcast
Fog, Overcast
 Wind from SSW
Wind: SSW 7 mph , 11 km/h
Temperature: 61°F , 16°C
Dew Point: 61°F , 16°C
Humidity: 100%
Barometer: 29.86 inHg , 1011.2 hPa
Summary: Fog
Clouds: Overcast
Visibility: less than 1/4 mile , 0.4 km
Cloud details: Overcast 200 ft
2018/06/24 11:51 KOXC 241151Z 20006KT M1/4SM FG OVC002 16/16 A2986 RMK AO2 SLP122 T01610161 10161 20150 53007
KDXR - Danbury, Connecticut, USA
Distance from station: SW 19mi, 30km
Updated: Sun, 24-Jun-2018 7:53am EDT
Mist, Overcast
Mist, Overcast
 Wind from SW
Wind: SW 7 mph , 11 km/h
Temperature: 64°F , 18°C
Dew Point: 63°F , 17°C
Humidity: 94%
Barometer: 29.85 inHg , 1010.8 hPa
Summary: Mist
Clouds: Overcast
Visibility: 4 miles , 6 km
Cloud details: Overcast 600 ft
2018/06/24 11:53 KDXR 241153Z 23006KT 4SM BR OVC006 18/17 A2985 RMK AO2 SLP107 T01780172 10178 20161 53007
 
KMMK - Meriden, Connecticut, USA
Distance from station: E 20mi, 33km
Updated: Sun, 24-Jun-2018 7:53am EDT
Overcast
Overcast
 Wind from S
Wind: S 7 mph , 11 km/h
Temperature: 63°F , 17°C
Dew Point: 59°F , 15°C
Humidity: 88%
Barometer: 29.84 inHg , 1010.5 hPa
Clouds: Overcast
Visibility: 10 miles , 16 km
Cloud details: Overcast 700 ft
2018/06/24 11:53 KMMK 241153Z AUTO 19006KT 10SM OVC007 17/15 A2984 RMK AO2 SLP105 T01720150 10172 20150 53007
KBDR - Bridgeport, Connecticut, USA
Distance from station: S 27mi, 44km
Updated: Sun, 24-Jun-2018 8:24am EDT
Light rain, Mist, Overcast
Light rain, Mist, Overcast
 Wind from SW
Wind: SW 5 mph , 7 km/h
Temperature: 64°F , 18°C
Dew Point: 63°F , 17°C
Humidity: 94%
Barometer: 29.85 inHg , 1010.8 hPa
Summary: Light rain, Mist
Clouds: Overcast
Visibility: 5 miles , 8 km
Cloud details: Mostly cloudy 800 ft
Overcast 1300 ft
2018/06/24 12:24 KBDR 241224Z 23004KT 5SM -RA BR BKN008 OVC013 18/17 A2985 RMK AO2 RAB12 P0000 T01830172
 
KHVN - New Haven/Tweed, Connecticut, USA
Distance from station: SE 27mi, 44km
Updated: Sun, 24-Jun-2018 7:53am EDT
Mist, Overcast
Mist, Overcast
 Wind from calm
Wind: Calm
Temperature: 64°F , 18°C
Dew Point: 63°F , 17°C
Humidity: 94%
Barometer: 29.84 inHg , 1010.5 hPa
Summary: Mist
Clouds: Overcast
Visibility: 5 miles , 8 km
Cloud details: Overcast 800 ft
2018/06/24 11:53 KHVN 241153Z 00000KT 5SM BR OVC008 18/17 A2984 RMK AO2 SLP105 T01830167 10183 20161 53009
KHFD - Hartford/Brainar, Connecticut, USA
Distance from station: ENE 32mi, 52km
Updated: Sun, 24-Jun-2018 8:27am EDT
Mist, Overcast
Mist, Overcast
 Wind from SSW
Wind: SSW 5 mph , 7 km/h
Temperature: 63°F , 17°C
Dew Point: 63°F , 17°C
Humidity: 100%
Barometer: 29.84 inHg , 1010.5 hPa
Summary: Mist
Clouds: Overcast
Visibility: 3 miles , 5 km
Cloud details: Overcast 500 ft
2018/06/24 12:27 KHFD 241227Z 20004KT 3SM BR OVC005 17/17 A2984 RMK AO2 T01720167
 
KPOU - Poughkeepsie, New York, USA
Distance from station: W 35mi, 56km
Updated: Sun, 24-Jun-2018 7:53am EDT
Overcast
Overcast
 Wind from SE
Wind: SE 3 mph , 6 km/h
Temperature: 68°F , 20°C
Dew Point: 63°F , 17°C
Humidity: 83%
Barometer: 29.81 inHg , 1009.5 hPa
Clouds: Overcast
Visibility: 10 miles , 16 km
Cloud details: Overcast 1300 ft
2018/06/24 11:53 KPOU 241153Z 14003KT 10SM OVC013 20/17 A2981 RMK AO2 SLP090 T02000167 10200 20178 53006
KBDL - Windsor Locks, Connecticut, USA
Distance from station: NE 38mi, 62km
Updated: Sun, 24-Jun-2018 7:51am EDT
Overcast
Overcast
 Wind from S
Wind: S 6 mph , 9 km/h
Temperature: 63°F , 17°C
Dew Point: 59°F , 15°C
Humidity: 88%
Barometer: 29.83 inHg , 1010.2 hPa
Clouds: Overcast
Visibility: 9 miles , 14 km
Cloud details: Overcast 600 ft
2018/06/24 11:51 KBDL 241151Z 19005KT 9SM OVC006 17/15 A2983 RMK AO2 SLP099 70004 T01670150 10167 20144 53004
 
KSNC - Chester, Connecticut, USA
Distance from station: ESE 39mi, 63km
Updated: Sun, 24-Jun-2018 8:15am EDT
Mist
Mist
 Wind from varies
Wind: varies 5 mph , 7 km/h
Temperature: 64°F , 18°C
Dew Point: 63°F , 17°C
Humidity: 94%
Barometer: 29.85 inHg , 1010.8 hPa
Summary: Mist
Visibility: 4 miles , 6 km
2018/06/24 12:15 KSNC 241215Z AUTO VRB04KT 4SM BR 18/17 A2985 RMK AO2
KHPN - White Plains, New York, USA
Distance from station: SW 42mi, 67km
Updated: Sun, 24-Jun-2018 7:56am EDT
Mist, Overcast
Mist, Overcast
 Wind from SW
Wind: SW 5 mph , 7 km/h
Temperature: 64°F , 18°C
Dew Point: 63°F , 17°C
Humidity: 94%
Barometer: 29.84 inHg , 1010.5 hPa
Summary: Mist
Clouds: Overcast
Visibility: 3/4 mile , 1.2 km
Cloud details: Overcast 200 ft
2018/06/24 11:56 KHPN 241156Z 22004KT 3/4SM R16/4000V5500FT BR VV002 18/17 A2984 RMK AO2 SLP103 T01780172 10183 20167 53008
 
KSWF - Newburgh/Stewart, New York, USA
Distance from station: W 45mi, 72km
Updated: Sun, 24-Jun-2018 8:25am EDT
Mist, Overcast
Mist, Overcast
 Wind from WSW
Wind: WSW 6 mph , 9 km/h
Temperature: 68°F , 20°C
Dew Point: 66°F , 19°C
Humidity: 94%
Barometer: 29.85 inHg , 1010.8 hPa
Summary: Mist
Clouds: Overcast
Visibility: 6 miles , 10 km
Cloud details: Partly cloudy 1200 ft
Overcast 3000 ft
2018/06/24 12:25 KSWF 241225Z 25005KT 6SM BR SCT012 OVC030 20/19 A2985
KBAF - Westfield, Massachusetts, USA
Distance from station: NNE 50mi, 80km
Updated: Sun, 24-Jun-2018 7:55am EDT
Haze, Overcast
Haze, Overcast
 Wind from S
Wind: S 3 mph , 6 km/h
Temperature: 61°F , 16°C
Dew Point: 61°F , 16°C
Humidity: 100%
Barometer: 29.82 inHg , 1009.8 hPa
Summary: Haze
Clouds: Overcast
Visibility: 3 miles , 5 km
Cloud details: Overcast 500 ft
2018/06/24 11:55 KBAF 241155Z 19003KT 3SM HZ OVC005 16/16 A2982 RMK AO2 T01610156